createdAt,value
2022-08-26T04:00:32.304Z,0.00
2022-08-26T04:01:32.400Z,0.00
2022-08-26T04:02:32.294Z,0.00
2022-08-26T04:03:32.239Z,0.00
2022-08-26T04:04:32.226Z,0.00
2022-08-26T04:05:32.214Z,0.00
2022-08-26T04:06:32.213Z,0.00
2022-08-26T04:07:32.203Z,0.00
2022-08-26T04:08:32.182Z,4.00
2022-08-26T04:09:32.167Z,4.00
2022-08-26T04:10:32.161Z,0.00
2022-08-26T04:11:37.851Z,4.00
2022-08-26T04:12:32.162Z,4.00
2022-08-26T04:13:32.135Z,0.00
2022-08-26T04:14:32.113Z,4.00
2022-08-26T04:15:32.106Z,4.00
2022-08-26T04:16:32.134Z,4.00
2022-08-26T04:17:32.090Z,4.00
2022-08-26T04:18:33.198Z,8.00
2022-08-26T04:19:33.054Z,8.00
2022-08-26T04:20:32.053Z,8.00
2022-08-26T04:21:32.033Z,8.00
2022-08-26T04:22:37.045Z,12.00
2022-08-26T04:23:32.026Z,16.00
2022-08-26T04:24:33.001Z,12.00
2022-08-26T04:25:31.989Z,16.00
2022-08-26T04:26:31.985Z,20.00
2022-08-26T04:27:31.966Z,24.00
2022-08-26T04:28:31.978Z,24.00
2022-08-26T04:29:31.943Z,28.00
2022-08-26T04:30:31.946Z,32.00
2022-08-26T04:31:31.950Z,36.00
2022-08-26T04:32:31.912Z,40.00
2022-08-26T04:33:36.934Z,44.00
2022-08-26T04:34:31.907Z,48.00
2022-08-26T04:35:31.878Z,52.00
2022-08-26T04:36:31.869Z,56.00
2022-08-26T04:37:31.856Z,60.00
2022-08-26T04:38:31.857Z,64.00
2022-08-26T04:39:31.836Z,68.00
2022-08-26T04:40:31.898Z,72.00
2022-08-26T04:41:31.817Z,80.00
2022-08-26T04:42:31.811Z,84.00
2022-08-26T04:43:31.799Z,92.00
2022-08-26T04:44:36.801Z,96.00
2022-08-26T04:45:31.765Z,104.00
2022-08-26T04:46:31.801Z,112.00
2022-08-26T04:47:32.465Z,120.00
2022-08-26T04:48:31.751Z,124.00
2022-08-26T04:49:35.490Z,132.00
2022-08-26T04:50:31.710Z,140.00
2022-08-26T04:51:31.698Z,148.00
2022-08-26T04:52:31.692Z,152.00
2022-08-26T04:53:31.686Z,160.00
2022-08-26T04:54:31.666Z,164.00
2022-08-26T04:55:39.833Z,176.00
2022-08-26T04:56:32.648Z,184.00
2022-08-26T04:57:31.633Z,200.00
2022-08-26T04:58:31.640Z,212.00
2022-08-26T04:59:33.261Z,224.00
2022-08-26T05:00:31.599Z,244.00
2022-08-26T05:01:31.704Z,260.00
2022-08-26T05:02:31.578Z,272.00
2022-08-26T05:03:31.579Z,260.00
2022-08-26T05:04:31.564Z,252.00
2022-08-26T05:05:31.553Z,264.00
2022-08-26T05:06:37.145Z,264.00
2022-08-26T05:07:31.521Z,256.00
2022-08-26T05:08:31.524Z,240.00
2022-08-26T05:09:31.533Z,228.00
2022-08-26T05:10:31.500Z,224.00
2022-08-26T05:11:31.486Z,220.00
2022-08-26T05:12:31.490Z,224.00
2022-08-26T05:13:31.465Z,236.00
2022-08-26T05:14:31.451Z,240.00
2022-08-26T05:15:31.439Z,244.00
2022-08-26T05:16:31.423Z,240.00
2022-08-26T05:17:36.442Z,232.00
2022-08-26T05:18:31.410Z,232.00
2022-08-26T05:19:31.387Z,236.00
2022-08-26T05:20:31.378Z,232.00
2022-08-26T05:21:31.368Z,232.00
2022-08-26T05:22:31.358Z,232.00
2022-08-26T05:23:31.362Z,232.00
2022-08-26T05:24:31.334Z,236.00
2022-08-26T05:25:31.363Z,248.00
2022-08-26T05:26:31.338Z,256.00
2022-08-26T05:27:31.307Z,284.00
2022-08-26T05:28:36.330Z,320.00
2022-08-26T05:29:31.277Z,364.00
2022-08-26T05:30:31.280Z,392.00
2022-08-26T05:31:31.370Z,404.00
2022-08-26T05:32:31.250Z,396.00
2022-08-26T05:33:31.245Z,404.00
2022-08-26T05:34:31.227Z,424.00
2022-08-26T05:35:31.211Z,456.00
2022-08-26T05:36:31.201Z,496.00
2022-08-26T05:37:31.227Z,524.00
2022-08-26T05:38:31.191Z,560.00
2022-08-26T05:39:36.188Z,572.00
2022-08-26T05:40:31.239Z,584.00
2022-08-26T05:41:34.332Z,604.00
2022-08-26T05:42:32.135Z,644.00
2022-08-26T05:43:31.142Z,644.00
2022-08-26T05:44:33.273Z,636.00
2022-08-26T05:45:32.113Z,580.00
2022-08-26T05:46:31.196Z,560.00
2022-08-26T05:47:31.077Z,540.00
2022-08-26T05:48:31.071Z,528.00
2022-08-26T05:49:31.083Z,512.00
2022-08-26T05:50:36.073Z,496.00
2022-08-26T05:51:31.136Z,452.00
2022-08-26T05:52:31.023Z,424.00
2022-08-26T05:53:31.012Z,412.00
2022-08-26T05:54:31.013Z,416.00
2022-08-26T05:55:30.991Z,432.00
2022-08-26T05:56:31.022Z,444.00
2022-08-26T05:57:30.998Z,456.00
2022-08-26T05:58:30.959Z,468.00
2022-08-26T05:59:30.961Z,488.00
2022-08-26T06:00:30.935Z,488.00
2022-08-26T06:01:36.094Z,504.00
2022-08-26T06:02:30.940Z,516.00
2022-08-26T06:03:30.902Z,528.00
2022-08-26T06:04:30.918Z,540.00
2022-08-26T06:05:33.326Z,560.00
2022-08-26T06:06:31.889Z,568.00
2022-08-26T06:07:30.873Z,584.00
2022-08-26T06:08:30.857Z,604.00
2022-08-26T06:09:30.849Z,640.00
2022-08-26T06:10:32.956Z,668.00
2022-08-26T06:11:30.810Z,708.00
2022-08-26T06:12:35.827Z,732.00
2022-08-26T06:13:32.066Z,824.00
2022-08-26T06:14:30.812Z,788.00
2022-08-26T06:15:30.912Z,884.00
2022-08-26T06:16:30.761Z,932.00
2022-08-26T06:17:30.743Z,940.00
2022-08-26T06:18:30.740Z,956.00
2022-08-26T06:19:32.975Z,1272.00
2022-08-26T06:20:30.751Z,1436.00
2022-08-26T06:21:30.705Z,1856.00
2022-08-26T06:22:30.750Z,1012.00
2022-08-26T06:23:35.701Z,928.00
2022-08-26T06:24:30.687Z,960.00
2022-08-26T06:25:30.656Z,964.00
2022-08-26T06:26:30.661Z,1016.00
2022-08-26T06:27:32.858Z,1520.00
2022-08-26T06:28:30.628Z,1740.00
2022-08-26T06:29:30.645Z,1704.00
2022-08-26T06:30:30.621Z,1568.00
2022-08-26T06:31:30.625Z,1528.00
2022-08-26T06:32:30.584Z,1424.00
2022-08-26T06:33:30.575Z,1344.00
2022-08-26T06:34:35.607Z,1308.00
2022-08-26T06:35:30.551Z,1352.00
2022-08-26T06:36:30.541Z,1484.00
2022-08-26T06:37:30.538Z,1676.00
2022-08-26T06:38:30.514Z,1900.00
2022-08-26T06:39:30.771Z,1956.00
2022-08-26T06:40:30.613Z,2008.00
2022-08-26T06:41:30.484Z,2084.00
2022-08-26T06:42:30.475Z,1784.00
2022-08-26T06:43:30.467Z,1720.00
2022-08-26T06:44:30.464Z,1680.00
2022-08-26T06:45:35.491Z,1680.00
2022-08-26T06:46:30.490Z,1732.00
2022-08-26T06:47:30.420Z,1952.00
2022-08-26T06:48:30.416Z,2340.00
2022-08-26T06:49:30.435Z,2704.00
2022-08-26T06:50:30.387Z,3052.00
2022-08-26T06:51:30.378Z,3248.00
2022-08-26T06:52:30.361Z,3336.00
2022-08-26T06:53:30.345Z,2988.00
2022-08-26T06:54:30.433Z,2392.00
2022-08-26T06:55:30.377Z,2140.00
2022-08-26T06:56:35.335Z,1976.00
2022-08-26T06:57:30.300Z,1840.00
2022-08-26T06:58:30.296Z,1728.00
2022-08-26T06:59:30.278Z,1620.00
2022-08-26T07:00:30.332Z,1608.00
2022-08-26T07:01:30.323Z,1676.00
2022-08-26T07:02:30.292Z,1768.00
2022-08-26T07:03:30.274Z,1864.00
2022-08-26T07:04:30.221Z,2108.00
2022-08-26T07:05:30.227Z,2136.00
2022-08-26T07:06:30.212Z,2016.00
2022-08-26T07:07:35.212Z,1984.00
2022-08-26T07:08:30.188Z,1948.00
2022-08-26T07:09:30.174Z,1996.00
2022-08-26T07:10:30.624Z,1988.00
2022-08-26T07:11:30.168Z,2152.00
2022-08-26T07:12:30.163Z,2092.00
2022-08-26T07:13:30.738Z,1980.00
2022-08-26T07:14:30.132Z,1804.00
2022-08-26T07:15:31.198Z,1788.00
2022-08-26T07:16:30.084Z,1756.00
2022-08-26T07:17:30.088Z,1684.00
2022-08-26T07:18:35.094Z,1604.00
2022-08-26T07:19:31.809Z,1560.00
2022-08-26T07:20:30.058Z,1544.00
2022-08-26T07:21:30.032Z,1528.00
2022-08-26T07:22:30.036Z,1500.00
2022-08-26T07:23:30.010Z,1496.00
2022-08-26T07:24:30.007Z,1528.00
2022-08-26T07:25:29.984Z,1556.00
2022-08-26T07:26:29.974Z,1616.00
2022-08-26T07:27:29.958Z,1768.00
2022-08-26T07:28:29.948Z,2080.00
2022-08-26T07:29:34.977Z,2296.00
2022-08-26T07:30:29.931Z,2584.00
2022-08-26T07:31:32.508Z,2740.00
2022-08-26T07:32:29.909Z,2912.00
2022-08-26T07:33:29.898Z,2980.00
2022-08-26T07:34:29.911Z,2968.00
2022-08-26T07:35:29.871Z,2772.00
2022-08-26T07:36:29.865Z,2508.00
2022-08-26T07:37:30.561Z,2208.00
2022-08-26T07:38:30.831Z,2012.00
2022-08-26T07:39:31.417Z,1816.00
2022-08-26T07:40:34.915Z,1848.00
2022-08-26T07:42:29.793Z,1956.00
2022-08-26T07:43:29.799Z,2044.00
2022-08-26T07:44:29.804Z,2048.00
2022-08-26T07:45:29.780Z,2192.00
2022-08-26T07:46:30.512Z,2256.00
2022-08-26T07:47:29.736Z,2332.00
2022-08-26T07:48:29.720Z,2380.00
2022-08-26T07:49:29.788Z,2576.00
2022-08-26T07:50:48.903Z,2708.00
2022-08-26T07:51:35.715Z,2712.00
2022-08-26T07:52:29.776Z,2580.00
2022-08-26T07:53:29.675Z,2416.00
2022-08-26T07:54:29.691Z,2316.00
2022-08-26T07:55:29.648Z,2328.00
2022-08-26T07:56:29.630Z,2260.00
2022-08-26T07:57:29.625Z,2216.00
2022-08-26T07:58:29.613Z,2088.00
2022-08-26T07:59:29.620Z,2072.00
2022-08-26T08:00:29.630Z,2232.00
2022-08-26T08:01:30.797Z,2444.00
2022-08-26T08:02:34.591Z,2800.00
2022-08-26T08:03:29.554Z,3004.00
2022-08-26T08:04:29.544Z,2940.00
2022-08-26T08:05:33.238Z,2720.00
2022-08-26T08:06:29.526Z,2548.00
2022-08-26T08:07:44.656Z,2444.00
2022-08-26T08:08:30.505Z,2272.00
2022-08-26T08:09:29.490Z,2252.00
2022-08-26T08:10:29.505Z,2288.00
2022-08-26T08:11:29.467Z,2416.00
2022-08-26T08:12:29.453Z,2532.00
2022-08-26T08:13:34.463Z,2568.00
2022-08-26T08:14:29.427Z,2632.00
2022-08-26T08:15:29.438Z,2676.00
2022-08-26T08:16:32.276Z,2832.00
2022-08-26T08:17:29.411Z,2940.00
2022-08-26T08:18:29.386Z,2896.00
2022-08-26T08:19:36.860Z,2868.00
2022-08-26T08:20:30.380Z,2820.00
2022-08-26T08:21:29.352Z,2884.00
2022-08-26T08:22:29.344Z,2904.00
2022-08-26T08:23:29.336Z,3044.00
2022-08-26T08:24:34.362Z,3180.00
2022-08-26T08:25:29.306Z,3108.00
2022-08-26T08:26:29.305Z,2948.00
2022-08-26T08:27:29.286Z,2872.00
2022-08-26T08:28:29.273Z,2800.00
2022-08-26T08:29:29.261Z,2776.00
2022-08-26T08:30:29.273Z,2792.00
2022-08-26T08:31:55.849Z,2864.00
2022-08-26T08:32:30.234Z,2900.00
2022-08-26T08:33:29.221Z,3068.00
2022-08-26T08:34:29.281Z,3264.00
2022-08-26T08:35:34.234Z,3232.00
2022-08-26T08:36:30.548Z,3244.00
2022-08-26T08:37:30.196Z,3396.00
2022-08-26T08:38:29.160Z,3544.00
2022-08-26T08:39:29.153Z,3444.00
2022-08-26T08:40:29.400Z,3324.00
2022-08-26T08:41:29.127Z,3368.00
2022-08-26T08:42:29.123Z,3300.00
2022-08-26T08:43:29.110Z,3308.00
2022-08-26T08:44:29.126Z,3304.00
2022-08-26T08:45:30.459Z,3296.00
2022-08-26T08:46:34.150Z,3180.00
2022-08-26T08:47:29.061Z,3028.00
2022-08-26T08:48:29.072Z,2924.00
2022-08-26T08:49:29.220Z,2828.00
2022-08-26T08:50:29.075Z,2820.00
2022-08-26T08:51:29.027Z,2868.00
2022-08-26T08:52:29.004Z,3044.00
2022-08-26T08:53:29.018Z,3384.00
2022-08-26T08:54:29.013Z,3728.00
2022-08-26T08:55:28.983Z,3856.00
2022-08-26T08:56:28.961Z,4036.00
2022-08-26T08:57:33.973Z,4084.00
2022-08-26T08:58:28.958Z,4136.00
2022-08-26T08:59:28.928Z,4404.00
2022-08-26T09:00:30.411Z,4436.00
2022-08-26T09:01:29.036Z,4652.00
2022-08-26T09:02:28.952Z,4664.00
2022-08-26T09:03:28.905Z,4812.00
2022-08-26T09:04:28.879Z,4844.00
2022-08-26T09:05:28.888Z,4736.00
2022-08-26T09:06:28.850Z,4432.00
2022-08-26T09:07:29.810Z,4144.00
2022-08-26T09:08:33.862Z,4096.00
2022-08-26T09:09:28.821Z,4068.00
2022-08-26T09:10:28.830Z,4072.00
2022-08-26T09:11:28.795Z,4028.00
2022-08-26T09:12:29.477Z,4052.00
2022-08-26T09:13:28.774Z,4068.00
2022-08-26T09:14:28.775Z,4076.00
2022-08-26T09:15:30.588Z,4120.00
2022-08-26T09:16:28.801Z,3904.00
2022-08-26T09:17:28.728Z,3856.00
2022-08-26T09:18:28.721Z,3752.00
2022-08-26T09:19:33.744Z,3688.00
2022-08-26T09:20:28.822Z,3380.00
2022-08-26T09:21:28.726Z,3112.00
2022-08-26T09:22:28.694Z,3004.00
2022-08-26T09:23:28.679Z,3064.00
2022-08-26T09:24:28.939Z,3080.00
2022-08-26T09:25:28.637Z,3160.00
2022-08-26T09:26:30.613Z,3240.00
2022-08-26T09:27:28.644Z,3316.00
2022-08-26T09:28:28.619Z,3288.00
2022-08-26T09:29:28.595Z,3124.00
2022-08-26T09:30:33.727Z,3280.00
2022-08-26T09:31:28.707Z,3192.00
2022-08-26T09:32:28.608Z,3792.00
2022-08-26T09:33:28.549Z,5380.00
2022-08-26T09:34:28.536Z,7264.00
2022-08-26T09:35:28.526Z,10068.00
2022-08-26T09:36:28.533Z,5456.00
2022-08-26T09:37:28.561Z,13392.00
2022-08-26T09:38:28.495Z,7408.00
2022-08-26T09:39:28.483Z,5136.00
2022-08-26T09:40:28.512Z,5456.00
2022-08-26T09:41:33.502Z,5444.00
2022-08-26T09:42:28.463Z,5296.00
2022-08-26T09:43:28.437Z,5000.00
2022-08-26T09:44:28.443Z,4848.00
2022-08-26T09:45:28.427Z,4812.00
2022-08-26T09:46:29.108Z,4804.00
2022-08-26T09:47:28.462Z,4952.00
2022-08-26T09:48:28.379Z,5276.00
2022-08-26T09:49:29.900Z,4796.00
2022-08-26T09:50:28.796Z,4736.00
2022-08-26T09:51:28.387Z,4876.00
2022-08-26T09:52:33.402Z,5092.00
2022-08-26T09:53:30.400Z,5420.00
2022-08-26T09:54:30.471Z,5444.00
2022-08-26T09:55:28.305Z,5256.00
2022-08-26T09:56:28.310Z,4940.00
2022-08-26T09:57:28.298Z,4568.00
2022-08-26T09:58:28.302Z,4348.00
2022-08-26T09:59:28.285Z,4436.00
2022-08-26T10:00:28.247Z,4668.00
2022-08-26T10:01:30.123Z,4888.00
2022-08-26T10:02:28.235Z,5068.00
2022-08-26T10:03:33.242Z,5032.00
2022-08-26T10:04:28.362Z,5252.00
2022-08-26T10:05:28.233Z,5488.00
2022-08-26T10:06:28.192Z,5460.00
2022-08-26T10:07:28.172Z,5460.00
2022-08-26T10:08:28.162Z,5412.00
2022-08-26T10:09:28.204Z,5320.00
2022-08-26T10:10:28.146Z,5104.00
2022-08-26T10:11:28.161Z,5076.00
2022-08-26T10:12:28.125Z,5084.00
2022-08-26T10:13:29.558Z,4976.00
2022-08-26T10:14:33.191Z,5136.00
2022-08-26T10:15:28.092Z,4368.00
2022-08-26T10:16:28.536Z,4672.00
2022-08-26T10:17:28.063Z,6152.00
2022-08-26T10:18:32.083Z,4384.00
2022-08-26T10:19:29.109Z,4176.00
2022-08-26T10:20:29.072Z,4120.00
2022-08-26T10:21:28.034Z,4080.00
2022-08-26T10:22:28.007Z,4040.00
2022-08-26T10:23:28.072Z,3964.00
2022-08-26T10:24:27.994Z,3928.00
2022-08-26T10:25:33.000Z,5436.00
2022-08-26T10:26:41.732Z,4932.00
2022-08-26T10:27:27.993Z,4868.00
2022-08-26T10:28:27.935Z,4480.00
2022-08-26T10:29:27.934Z,4596.00
2022-08-26T10:30:27.930Z,5724.00
2022-08-26T10:31:28.379Z,4880.00
2022-08-26T10:32:27.970Z,5036.00
2022-08-26T10:33:27.955Z,5124.00
2022-08-26T10:34:27.867Z,5016.00
2022-08-26T10:35:27.858Z,5100.00
2022-08-26T10:36:39.379Z,5060.00
2022-08-26T10:37:28.866Z,5392.00
2022-08-26T10:38:28.667Z,6064.00
2022-08-26T10:39:27.813Z,6136.00
2022-08-26T10:40:27.866Z,10524.00
2022-08-26T10:41:27.817Z,19200.00
2022-08-26T10:42:28.820Z,11100.00
2022-08-26T10:43:27.785Z,4784.00
2022-08-26T10:44:27.770Z,4500.00
2022-08-26T10:45:27.807Z,4368.00
2022-08-26T10:46:27.787Z,4360.00
2022-08-26T10:47:32.746Z,4984.00
2022-08-26T10:48:27.717Z,7740.00
2022-08-26T10:49:28.748Z,5324.00
2022-08-26T10:50:27.689Z,4940.00
2022-08-26T10:51:27.695Z,6040.00
2022-08-26T10:52:29.342Z,5604.00
2022-08-26T10:53:27.659Z,13276.00
2022-08-26T10:54:27.646Z,19744.00
2022-08-26T10:55:27.646Z,19424.00
2022-08-26T10:56:27.642Z,15872.00
2022-08-26T10:57:27.616Z,22144.00
2022-08-26T10:58:32.626Z,20288.00
2022-08-26T10:59:29.420Z,12692.00
2022-08-26T11:00:27.721Z,9728.00
2022-08-26T11:01:27.658Z,7532.00
2022-08-26T11:02:27.557Z,5824.00
2022-08-26T11:03:27.549Z,5412.00
2022-08-26T11:04:27.615Z,5184.00
2022-08-26T11:05:27.533Z,5264.00
2022-08-26T11:06:27.540Z,5640.00
2022-08-26T11:07:27.504Z,7064.00
2022-08-26T11:08:27.493Z,7676.00
2022-08-26T11:09:28.803Z,5928.00
2022-08-26T11:10:27.469Z,5296.00
2022-08-26T11:11:32.496Z,4868.00
2022-08-26T11:12:27.471Z,4448.00
2022-08-26T11:13:27.464Z,4248.00
2022-08-26T11:14:29.190Z,4132.00
2022-08-26T11:15:27.416Z,4356.00
2022-08-26T11:16:27.529Z,4588.00
2022-08-26T11:17:27.395Z,4124.00
2022-08-26T11:18:27.383Z,4064.00
2022-08-26T11:19:39.930Z,4040.00
2022-08-26T11:20:28.363Z,4012.00
2022-08-26T11:21:27.351Z,4076.00
2022-08-26T11:22:27.357Z,4276.00
2022-08-26T11:23:27.331Z,4680.00
2022-08-26T11:24:32.340Z,5168.00
2022-08-26T11:25:30.821Z,4416.00
2022-08-26T11:26:43.135Z,4180.00
2022-08-26T11:27:28.297Z,4128.00
2022-08-26T11:28:27.281Z,4108.00
2022-08-26T11:29:27.267Z,4200.00
2022-08-26T11:30:27.259Z,4108.00
2022-08-26T11:31:27.314Z,4320.00
2022-08-26T11:32:27.242Z,5784.00
2022-08-26T11:33:27.250Z,4900.00
2022-08-26T11:34:27.208Z,4368.00
2022-08-26T11:35:27.229Z,4808.00
2022-08-26T11:36:27.185Z,4584.00
2022-08-26T11:37:32.396Z,9100.00
2022-08-26T11:38:27.184Z,4400.00
2022-08-26T11:39:27.176Z,4124.00
2022-08-26T11:40:27.200Z,4372.00
2022-08-26T11:41:27.144Z,5936.00
2022-08-26T11:42:27.627Z,3888.00
2022-08-26T11:43:29.768Z,3924.00
2022-08-26T11:44:27.096Z,3956.00
2022-08-26T11:45:27.172Z,3996.00
2022-08-26T11:46:27.076Z,4160.00
2022-08-26T11:47:27.075Z,6800.00
2022-08-26T11:48:27.054Z,9012.00
2022-08-26T11:49:27.050Z,4136.00
2022-08-26T11:50:32.056Z,4680.00
2022-08-26T11:51:27.042Z,5488.00
2022-08-26T11:52:27.048Z,5876.00
2022-08-26T11:53:26.996Z,4228.00
2022-08-26T11:54:26.992Z,4048.00
2022-08-26T11:55:27.974Z,4068.00
2022-08-26T11:56:26.966Z,4136.00
2022-08-26T11:57:26.966Z,4340.00
2022-08-26T11:58:26.947Z,4692.00
2022-08-26T11:59:26.980Z,22400.00
2022-08-26T12:00:26.926Z,73280.00
2022-08-26T12:01:26.910Z,84096.00
2022-08-26T12:02:26.917Z,85632.00
2022-08-26T12:03:32.047Z,84480.00
2022-08-26T12:04:27.007Z,83776.00
2022-08-26T12:05:26.932Z,84352.00
2022-08-26T12:07:26.844Z,79552.00
2022-08-26T12:08:27.928Z,81024.00
2022-08-26T12:09:26.822Z,81280.00
2022-08-26T12:10:29.545Z,82688.00
2022-08-26T12:11:26.800Z,42784.00
2022-08-26T12:12:26.792Z,18976.00
2022-08-26T12:13:26.793Z,40672.00
2022-08-26T12:14:27.321Z,90880.00
2022-08-26T12:15:26.758Z,85856.00
2022-08-26T12:16:31.853Z,83968.00
2022-08-26T12:17:26.768Z,86624.00
2022-08-26T12:18:29.698Z,86720.00
2022-08-26T12:19:27.337Z,81536.00
2022-08-26T12:20:26.708Z,73504.00
2022-08-26T12:21:26.697Z,74336.00
2022-08-26T12:22:26.688Z,78240.00
2022-08-26T12:23:26.705Z,55904.00
2022-08-26T12:24:26.667Z,73280.00
2022-08-26T12:25:26.656Z,58144.00
2022-08-26T12:26:26.644Z,55200.00
2022-08-26T12:27:26.656Z,79776.00
2022-08-26T12:28:26.651Z,81824.00
2022-08-26T12:29:31.636Z,75392.00
2022-08-26T12:30:26.602Z,74464.00
2022-08-26T12:31:26.617Z,72704.00
2022-08-26T12:32:26.588Z,70208.00
2022-08-26T12:33:26.585Z,62080.00
2022-08-26T12:34:26.581Z,60000.00
2022-08-26T12:35:26.551Z,66208.00
2022-08-26T12:36:26.549Z,67680.00
2022-08-26T12:37:26.529Z,67456.00
2022-08-26T12:38:26.532Z,63456.00
2022-08-26T12:39:26.508Z,60832.00
2022-08-26T12:40:31.608Z,57088.00
2022-08-26T12:41:26.490Z,59712.00
2022-08-26T12:42:26.478Z,54432.00
2022-08-26T12:43:26.486Z,48576.00
2022-08-26T12:44:26.459Z,29440.00
2022-08-26T12:45:26.500Z,8296.00
2022-08-26T12:46:26.456Z,7440.00
2022-08-26T12:47:41.773Z,7076.00
2022-08-26T12:48:27.428Z,7468.00
2022-08-26T12:49:26.405Z,8216.00
2022-08-26T12:50:26.401Z,8312.00
2022-08-26T12:51:31.413Z,7840.00
2022-08-26T12:52:26.553Z,7224.00
2022-08-26T12:53:26.362Z,6768.00
2022-08-26T12:54:26.376Z,6352.00
2022-08-26T12:55:26.365Z,6064.00
2022-08-26T12:56:26.334Z,5632.00
2022-08-26T12:57:26.326Z,5092.00
2022-08-26T12:58:26.313Z,4672.00
2022-08-26T12:59:26.322Z,4356.00
2022-08-26T13:00:28.494Z,4256.00
2022-08-26T13:01:26.379Z,4040.00
2022-08-26T13:02:31.299Z,4052.00
2022-08-26T13:03:26.279Z,4268.00
2022-08-26T13:04:26.288Z,4168.00
2022-08-26T13:05:26.236Z,4132.00
2022-08-26T13:06:26.234Z,4056.00
2022-08-26T13:07:26.216Z,3988.00
2022-08-26T13:08:26.205Z,3976.00
2022-08-26T13:09:26.205Z,4016.00
2022-08-26T13:10:30.931Z,3896.00
2022-08-26T13:11:26.173Z,4012.00
2022-08-26T13:12:26.162Z,4044.00
2022-08-26T13:13:26.158Z,3888.00
2022-08-26T13:14:26.155Z,3888.00
2022-08-26T13:15:31.162Z,3632.00
2022-08-26T13:16:26.246Z,3292.00
2022-08-26T13:17:26.151Z,3408.00
2022-08-26T13:18:26.098Z,3448.00
2022-08-26T13:19:26.098Z,3584.00
2022-08-26T13:20:26.093Z,3540.00
2022-08-26T13:21:26.081Z,3464.00
2022-08-26T13:22:26.056Z,3416.00
2022-08-26T13:23:26.046Z,3456.00
2022-08-26T13:24:26.055Z,3584.00
2022-08-26T13:25:26.024Z,3584.00
2022-08-26T13:26:26.013Z,3444.00
2022-08-26T13:27:25.999Z,3472.00
2022-08-26T13:28:31.174Z,3408.00
2022-08-26T13:29:26.009Z,3280.00
2022-08-26T13:30:25.994Z,3140.00
2022-08-26T13:31:27.041Z,2976.00
2022-08-26T13:32:27.583Z,2944.00
2022-08-26T13:33:25.933Z,2944.00
2022-08-26T13:34:25.937Z,2984.00
2022-08-26T13:35:25.912Z,3052.00
2022-08-26T13:36:25.905Z,3132.00
2022-08-26T13:37:34.720Z,3132.00
2022-08-26T13:38:33.117Z,3260.00
2022-08-26T13:39:26.883Z,3532.00
2022-08-26T13:40:25.925Z,3900.00
2022-08-26T13:41:30.869Z,4244.00
2022-08-26T13:42:25.861Z,4388.00
2022-08-26T13:43:25.850Z,4536.00
2022-08-26T13:44:25.835Z,4956.00
2022-08-26T13:45:25.804Z,4900.00
2022-08-26T13:46:25.901Z,4964.00
2022-08-26T13:47:25.946Z,4944.00
2022-08-26T13:48:25.773Z,5068.00
2022-08-26T13:49:25.774Z,5248.00
2022-08-26T13:50:25.810Z,5280.00
2022-08-26T13:51:25.796Z,5584.00
2022-08-26T13:52:30.805Z,5556.00
2022-08-26T13:53:26.715Z,5400.00
2022-08-26T13:54:30.897Z,5360.00
2022-08-26T13:55:25.716Z,5288.00
2022-08-26T13:56:25.712Z,4996.00
2022-08-26T13:57:25.673Z,4844.00
2022-08-26T13:58:25.664Z,4536.00
2022-08-26T13:59:25.662Z,4112.00
2022-08-26T14:00:25.668Z,3720.00
2022-08-26T14:01:25.645Z,3592.00
2022-08-26T14:02:25.623Z,3712.00
2022-08-26T14:03:25.708Z,3756.00
2022-08-26T14:04:27.102Z,3912.00
2022-08-26T14:05:25.587Z,4008.00
2022-08-26T14:06:25.575Z,3928.00
2022-08-26T14:07:30.588Z,3932.00
2022-08-26T14:08:25.577Z,4024.00
2022-08-26T14:09:25.578Z,3860.00
2022-08-26T14:10:25.538Z,3716.00
2022-08-26T14:11:25.520Z,3208.00
2022-08-26T14:12:25.514Z,3248.00
2022-08-26T14:13:25.500Z,3004.00
2022-08-26T14:14:25.499Z,3076.00
2022-08-26T14:15:25.477Z,3132.00
2022-08-26T14:16:25.569Z,2752.00
2022-08-26T14:17:25.456Z,2512.00
2022-08-26T14:18:25.445Z,2744.00
2022-08-26T14:19:25.458Z,2336.00
2022-08-26T14:20:30.449Z,2536.00
2022-08-26T14:21:25.433Z,2728.00
2022-08-26T14:22:25.429Z,2788.00
2022-08-26T14:23:25.774Z,2856.00
2022-08-26T14:24:25.421Z,2944.00
2022-08-26T14:25:25.390Z,2884.00
2022-08-26T14:26:28.335Z,2808.00
2022-08-26T14:27:25.346Z,2884.00
2022-08-26T14:29:25.331Z,3044.00
2022-08-26T14:30:25.336Z,2952.00
2022-08-26T14:31:25.351Z,2872.00
2022-08-26T14:32:25.290Z,3088.00
2022-08-26T14:33:30.306Z,3068.00
2022-08-26T14:34:25.301Z,3052.00
2022-08-26T14:35:25.308Z,2860.00
2022-08-26T14:36:25.341Z,2800.00
2022-08-26T14:37:25.241Z,2656.00
2022-08-26T14:38:25.235Z,2484.00
2022-08-26T14:39:25.235Z,2336.00
2022-08-26T14:40:25.342Z,2344.00
2022-08-26T14:41:25.206Z,2376.00
2022-08-26T14:42:25.185Z,2284.00
2022-08-26T14:43:25.173Z,2384.00
2022-08-26T14:44:25.163Z,2268.00
2022-08-26T14:45:25.167Z,2240.00
2022-08-26T14:46:30.327Z,2228.00
2022-08-26T14:47:25.176Z,2220.00
2022-08-26T14:48:25.149Z,2188.00
2022-08-26T14:49:25.115Z,2240.00
2022-08-26T14:50:25.110Z,2236.00
2022-08-26T14:51:25.098Z,2304.00
2022-08-26T14:52:25.078Z,2400.00
2022-08-26T14:53:25.063Z,2404.00
2022-08-26T14:54:25.059Z,2432.00
2022-08-26T14:55:25.052Z,2536.00
2022-08-26T14:56:25.033Z,2680.00
2022-08-26T14:57:25.018Z,2976.00
2022-08-26T14:58:25.021Z,3364.00
2022-08-26T14:59:30.041Z,3560.00
2022-08-26T15:00:25.029Z,3508.00
2022-08-26T15:01:28.030Z,3536.00
2022-08-26T15:02:32.562Z,3592.00
2022-08-26T15:03:25.954Z,3568.00
2022-08-26T15:04:24.959Z,3264.00
2022-08-26T15:05:24.946Z,3152.00
2022-08-26T15:06:24.921Z,2800.00
2022-08-26T15:07:24.909Z,2776.00
2022-08-26T15:08:24.908Z,2892.00
2022-08-26T15:09:24.888Z,2844.00
2022-08-26T15:10:24.919Z,3084.00
2022-08-26T15:11:24.901Z,2412.00
2022-08-26T15:12:29.878Z,2584.00
2022-08-26T15:13:24.865Z,2320.00
2022-08-26T15:14:26.014Z,2080.00
2022-08-26T15:15:24.843Z,1828.00
2022-08-26T15:16:24.914Z,1796.00
2022-08-26T15:17:24.804Z,1656.00
2022-08-26T15:18:24.791Z,1588.00
2022-08-26T15:19:24.778Z,1592.00
2022-08-26T15:20:24.835Z,1660.00
2022-08-26T15:21:24.762Z,1540.00
2022-08-26T15:22:24.751Z,1652.00
2022-08-26T15:23:24.745Z,1928.00
2022-08-26T15:24:24.736Z,1960.00
2022-08-26T15:25:29.756Z,1876.00
2022-08-26T15:26:24.935Z,1916.00
2022-08-26T15:27:24.723Z,1872.00
2022-08-26T15:28:24.687Z,1752.00
2022-08-26T15:29:24.673Z,1620.00
2022-08-26T15:30:24.659Z,1764.00
2022-08-26T15:31:24.749Z,1964.00
2022-08-26T15:32:24.647Z,1576.00
2022-08-26T15:33:24.627Z,1588.00
2022-08-26T15:34:24.616Z,1656.00
2022-08-26T15:35:24.603Z,1724.00
2022-08-26T15:36:24.604Z,1760.00
2022-08-26T15:37:24.583Z,2024.00
2022-08-26T15:38:29.594Z,1932.00
2022-08-26T15:39:24.605Z,2016.00
2022-08-26T15:40:24.677Z,1916.00
2022-08-26T15:41:24.551Z,1824.00
2022-08-26T15:42:24.527Z,1900.00
2022-08-26T15:43:28.979Z,1912.00
2022-08-26T15:44:24.525Z,1900.00
2022-08-26T15:45:25.842Z,2004.00
2022-08-26T15:46:24.565Z,2092.00
2022-08-26T15:47:24.471Z,2068.00
2022-08-26T15:48:24.478Z,2104.00
2022-08-26T15:49:24.480Z,2756.00
2022-08-26T15:50:24.466Z,2536.00
2022-08-26T15:51:29.462Z,2572.00
2022-08-26T15:52:24.455Z,2616.00
2022-08-26T15:53:24.436Z,2740.00
2022-08-26T15:54:24.398Z,3248.00
2022-08-26T15:55:24.385Z,3044.00
2022-08-26T15:56:24.395Z,3336.00
2022-08-26T15:57:24.362Z,4204.00
2022-08-26T15:58:24.366Z,3060.00
2022-08-26T15:59:24.341Z,3156.00
2022-08-26T16:00:24.330Z,3904.00
2022-08-26T16:01:27.556Z,3852.00
2022-08-26T16:02:24.513Z,4664.00
2022-08-26T16:03:24.295Z,3644.00
2022-08-26T16:04:29.318Z,3568.00
2022-08-26T16:05:24.348Z,3480.00
2022-08-26T16:06:24.301Z,3300.00
2022-08-26T16:07:24.262Z,3160.00
2022-08-26T16:08:24.244Z,2976.00
2022-08-26T16:09:24.567Z,3272.00
2022-08-26T16:10:24.222Z,3528.00
2022-08-26T16:11:25.680Z,3564.00
2022-08-26T16:12:24.199Z,2660.00
2022-08-26T16:13:24.187Z,2736.00